createdAt,value
2018-09-06T00:00:35.399Z,8.53
2018-09-06T00:03:02.315Z,8.30
2018-09-06T00:05:29.255Z,9.13
2018-09-06T00:07:56.234Z,9.97
2018-09-06T00:10:23.203Z,8.50
2018-09-06T00:12:50.144Z,8.67
2018-09-06T00:15:17.095Z,8.50
2018-09-06T00:17:44.079Z,8.40
2018-09-06T00:20:11.353Z,7.97
2018-09-06T00:22:38.285Z,8.13
2018-09-06T00:25:05.241Z,8.47
2018-09-06T00:27:32.181Z,8.63
2018-09-06T00:29:59.139Z,7.90
2018-09-06T00:32:26.063Z,8.10
2018-09-06T00:34:52.979Z,7.90
2018-09-06T00:37:19.901Z,7.63
2018-09-06T00:39:46.830Z,8.70
2018-09-06T00:42:13.768Z,9.27
2018-09-06T00:44:40.762Z,8.03
2018-09-06T00:47:07.713Z,8.70
2018-09-06T00:49:34.670Z,8.10
2018-09-06T00:52:01.600Z,8.80
2018-09-06T00:54:28.570Z,9.47
2018-09-06T00:56:55.513Z,9.90
2018-09-06T00:59:24.736Z,8.73
2018-09-06T01:01:51.993Z,8.80
2018-09-06T01:04:18.901Z,10.10
2018-09-06T01:06:45.861Z,10.33
2018-09-06T01:09:12.793Z,10.47
2018-09-06T01:11:39.708Z,9.50
2018-09-06T01:14:06.660Z,9.50
2018-09-06T01:16:33.650Z,10.93
2018-09-06T01:19:00.574Z,9.60
2018-09-06T01:21:27.523Z,11.37
2018-09-06T01:23:54.473Z,11.93
2018-09-06T01:26:28.247Z,11.17
2018-09-06T01:28:55.170Z,12.40
2018-09-06T01:31:22.322Z,12.33
2018-09-06T01:33:49.352Z,13.13
2018-09-06T01:36:22.159Z,11.77
2018-09-06T01:38:49.054Z,13.03
2018-09-06T01:41:15.998Z,13.00
2018-09-06T01:43:42.920Z,13.37
2018-09-06T01:46:16.526Z,11.83
2018-09-06T01:48:43.888Z,13.10
2018-09-06T01:51:10.813Z,12.00
2018-09-06T01:53:37.710Z,13.90
2018-09-06T01:56:04.694Z,13.47
2018-09-06T01:58:31.644Z,12.80
2018-09-06T02:00:58.589Z,14.47
2018-09-06T02:03:25.532Z,13.90
2018-09-06T02:05:52.445Z,14.43
2018-09-06T02:08:19.364Z,15.30
2018-09-06T02:10:46.298Z,16.27
2018-09-06T02:13:13.184Z,15.67
2018-09-06T02:15:40.090Z,15.20
2018-09-06T02:18:07.012Z,15.30
2018-09-06T02:20:34.179Z,16.37
2018-09-06T02:23:01.107Z,15.07
2018-09-06T02:25:28.036Z,14.83
2018-09-06T02:27:54.951Z,16.20
2018-09-06T02:30:21.837Z,15.10
2018-09-06T02:32:48.753Z,16.40
2018-09-06T02:35:15.658Z,16.37
2018-09-06T02:37:42.566Z,17.97
2018-09-06T02:40:14.055Z,14.87
2018-09-06T02:42:41.025Z,15.00
2018-09-06T02:45:07.913Z,18.37
2018-09-06T02:50:26.133Z,16.10
2018-09-06T02:52:53.773Z,18.63
2018-09-06T02:55:21.702Z,17.47
2018-09-06T02:57:49.006Z,18.93
2018-09-06T03:00:19.534Z,18.37
2018-09-06T03:02:46.441Z,15.70
2018-09-06T03:05:13.354Z,16.37
2018-09-06T03:07:40.277Z,18.23
2018-09-06T03:10:07.189Z,18.83
2018-09-06T03:12:34.101Z,19.77
2018-09-06T03:15:01.021Z,17.13
2018-09-06T03:17:27.928Z,18.77
2018-09-06T03:19:54.819Z,18.67
2018-09-06T03:22:21.740Z,18.60
2018-09-06T03:24:48.658Z,19.03
2018-09-06T03:27:15.587Z,21.10
2018-09-06T03:29:42.508Z,19.50
2018-09-06T03:32:09.417Z,20.07
2018-09-06T03:34:36.340Z,20.53
2018-09-06T03:37:03.234Z,19.97
2018-09-06T03:39:30.134Z,20.33
2018-09-06T03:41:57.028Z,21.47
2018-09-06T03:44:23.925Z,20.87
2018-09-06T03:46:50.829Z,21.10
2018-09-06T03:49:17.737Z,18.57
2018-09-06T03:51:44.650Z,19.60
2018-09-06T03:54:11.540Z,18.87
2018-09-06T03:56:38.428Z,22.33
2018-09-06T03:59:05.396Z,21.33
2018-09-06T04:01:32.300Z,22.67
2018-09-06T04:03:59.210Z,25.80
2018-09-06T04:06:26.084Z,21.67
2018-09-06T04:08:52.977Z,22.13
2018-09-06T04:11:19.843Z,23.90
2018-09-06T04:13:46.723Z,20.60
2018-09-06T04:16:13.663Z,21.83
2018-09-06T04:18:40.528Z,22.73
2018-09-06T04:21:07.455Z,21.60
2018-09-06T04:23:34.368Z,23.03
2018-09-06T04:26:01.281Z,21.87
2018-09-06T04:28:28.209Z,24.13
2018-09-06T04:30:55.133Z,21.27
2018-09-06T04:33:22.008Z,21.37
2018-09-06T04:35:48.941Z,20.97
2018-09-06T04:38:15.835Z,22.43
2018-09-06T04:40:42.713Z,21.90
2018-09-06T04:43:09.744Z,23.33
2018-09-06T04:45:36.630Z,20.93
2018-09-06T04:48:03.516Z,23.83
2018-09-06T04:50:30.413Z,22.80
2018-09-06T04:52:57.285Z,22.00
2018-09-06T04:55:24.253Z,22.63
2018-09-06T04:57:51.053Z,22.17
2018-09-06T05:00:17.952Z,23.43
2018-09-06T05:02:44.836Z,23.50
2018-09-06T05:05:11.735Z,23.30
2018-09-06T05:07:38.631Z,22.43
2018-09-06T05:10:06.072Z,25.87
2018-09-06T05:12:32.954Z,25.43
2018-09-06T05:14:59.852Z,25.23
2018-09-06T05:17:26.725Z,26.20
2018-09-06T05:19:53.620Z,24.30
2018-09-06T05:22:20.508Z,28.93
2018-09-06T05:24:47.465Z,27.30
2018-09-06T05:27:14.344Z,26.87
2018-09-06T05:29:41.224Z,27.03
2018-09-06T05:32:08.132Z,24.83
2018-09-06T05:34:35.033Z,23.97
2018-09-06T05:37:01.912Z,26.03
2018-09-06T05:39:28.859Z,28.37
2018-09-06T05:41:55.741Z,25.80
2018-09-06T05:44:22.805Z,26.53
2018-09-06T05:46:49.786Z,26.57
2018-09-06T05:49:16.671Z,27.13
2018-09-06T05:51:43.545Z,26.23
2018-09-06T05:54:10.435Z,25.00
2018-09-06T05:56:37.337Z,26.07
2018-09-06T05:59:04.244Z,25.60
2018-09-06T06:01:31.409Z,24.83
2018-09-06T06:03:58.301Z,24.17
2018-09-06T06:06:25.188Z,25.10
2018-09-06T06:08:52.108Z,25.17
2018-09-06T06:11:19.761Z,23.77
2018-09-06T06:13:46.653Z,24.20
2018-09-06T06:16:13.929Z,24.30
2018-09-06T06:18:40.824Z,23.70
2018-09-06T06:21:07.728Z,24.10
2018-09-06T06:23:34.624Z,22.47
2018-09-06T06:26:01.613Z,22.27
2018-09-06T06:28:28.476Z,22.10
2018-09-06T06:30:55.389Z,22.63
2018-09-06T06:33:22.284Z,22.83
2018-09-06T06:35:49.216Z,20.90
2018-09-06T06:38:16.124Z,20.57
2018-09-06T06:40:43.021Z,19.37
2018-09-06T06:43:09.914Z,18.67
2018-09-06T06:45:36.816Z,19.57
2018-09-06T06:48:03.744Z,19.90
2018-09-06T06:50:30.707Z,19.57
2018-09-06T06:52:57.568Z,16.93
2018-09-06T06:55:24.485Z,16.47
2018-09-06T06:57:51.373Z,17.47
2018-09-06T07:00:19.992Z,18.20
2018-09-06T07:02:46.891Z,17.63
2018-09-06T07:05:13.789Z,16.07
2018-09-06T07:07:40.677Z,16.33
2018-09-06T07:10:07.600Z,15.70
2018-09-06T07:12:34.488Z,15.77
2018-09-06T07:15:01.442Z,15.90
2018-09-06T07:17:28.336Z,16.03
2018-09-06T07:19:55.213Z,16.47
2018-09-06T07:22:22.136Z,15.50
2018-09-06T07:24:49.045Z,16.30
2018-09-06T07:27:15.985Z,14.70
2018-09-06T07:29:42.880Z,15.47
2018-09-06T07:32:09.809Z,15.77
2018-09-06T07:34:36.716Z,15.53
2018-09-06T07:37:03.632Z,15.60
2018-09-06T07:39:30.542Z,15.17
2018-09-06T07:41:57.432Z,15.60
2018-09-06T07:44:24.311Z,15.30
2018-09-06T07:46:51.284Z,16.23
2018-09-06T07:49:18.116Z,17.67
2018-09-06T07:51:45.143Z,16.23
2018-09-06T07:54:11.925Z,18.43
2018-09-06T07:56:38.831Z,17.07
2018-09-06T07:59:05.733Z,19.97
2018-09-06T08:01:32.692Z,18.40
2018-09-06T08:03:59.586Z,18.43
2018-09-06T08:06:26.525Z,18.00
2018-09-06T08:08:53.429Z,18.77
2018-09-06T08:11:20.349Z,17.27
2018-09-06T08:13:47.300Z,16.53
2018-09-06T08:16:14.229Z,15.57
2018-09-06T08:18:41.144Z,15.40
2018-09-06T08:21:08.066Z,15.07
2018-09-06T08:23:34.965Z,14.87
2018-09-06T08:26:01.877Z,15.73
2018-09-06T08:28:28.767Z,16.00
2018-09-06T08:30:55.924Z,15.50
2018-09-06T08:33:22.641Z,16.07
2018-09-06T08:35:49.548Z,16.60
2018-09-06T08:38:16.460Z,15.90
2018-09-06T08:40:43.356Z,16.13
2018-09-06T08:43:10.277Z,16.80
2018-09-06T08:45:37.153Z,15.73
2018-09-06T08:48:04.064Z,16.10
2018-09-06T08:50:30.944Z,16.50
2018-09-06T08:52:57.872Z,16.87
2018-09-06T08:55:24.780Z,17.27
2018-09-06T08:57:51.665Z,17.30
2018-09-06T09:00:18.542Z,18.60
2018-09-06T09:02:45.598Z,19.13
2018-09-06T09:05:12.372Z,18.83
2018-09-06T09:07:39.395Z,18.97
2018-09-06T09:10:06.204Z,20.07
2018-09-06T09:12:33.192Z,18.80
2018-09-06T09:15:00.084Z,25.50
2018-09-06T09:17:26.996Z,20.37
2018-09-06T09:19:53.902Z,20.10
2018-09-06T09:22:20.853Z,19.00
2018-09-06T09:24:47.723Z,18.67
2018-09-06T09:27:14.665Z,17.73
2018-09-06T09:29:41.551Z,18.00
2018-09-06T09:32:08.484Z,18.40
2018-09-06T09:34:35.376Z,18.27
2018-09-06T09:37:02.300Z,19.73
2018-09-06T09:39:29.227Z,18.70
2018-09-06T09:41:56.156Z,20.57
2018-09-06T09:44:23.048Z,20.07
2018-09-06T09:49:16.421Z,18.43
2018-09-06T09:51:43.406Z,18.37
2018-09-06T09:54:10.321Z,17.40
2018-09-06T09:56:37.272Z,17.80
2018-09-06T09:59:04.212Z,16.90
2018-09-06T10:01:36.936Z,16.73
2018-09-06T10:04:09.604Z,16.53
2018-09-06T10:06:42.325Z,17.47
2018-09-06T10:09:15.116Z,16.03
2018-09-06T10:11:42.004Z,15.83
2018-09-06T10:14:08.912Z,16.00
2018-09-06T10:16:35.827Z,15.33
2018-09-06T10:19:02.758Z,16.47
2018-09-06T10:21:29.677Z,14.50
2018-09-06T10:23:56.632Z,14.33
2018-09-06T10:26:23.530Z,14.53
2018-09-06T10:28:50.436Z,14.23
2018-09-06T10:31:17.327Z,15.27
2018-09-06T10:33:44.241Z,16.40
2018-09-06T10:36:11.172Z,15.43
2018-09-06T10:38:38.080Z,13.73
2018-09-06T10:41:05.309Z,14.80
2018-09-06T10:43:32.251Z,13.93
2018-09-06T10:45:59.182Z,15.30
2018-09-06T10:48:26.097Z,13.90
2018-09-06T10:50:53.021Z,13.23
2018-09-06T10:53:19.936Z,13.37
2018-09-06T10:55:46.843Z,14.37
2018-09-06T10:58:13.756Z,11.80
2018-09-06T11:00:40.722Z,12.53
2018-09-06T11:03:07.647Z,12.50
2018-09-06T11:05:34.570Z,14.40
2018-09-06T11:08:01.559Z,14.50
2018-09-06T11:10:28.431Z,13.97
2018-09-06T11:12:55.312Z,11.97
2018-09-06T11:15:22.219Z,12.97
2018-09-06T11:17:49.128Z,12.90
2018-09-06T11:20:16.027Z,12.57
2018-09-06T11:22:43.162Z,12.13
2018-09-06T11:25:09.849Z,12.73
2018-09-06T11:27:36.825Z,12.63
2018-09-06T11:30:03.957Z,13.00
2018-09-06T11:32:30.912Z,14.20
2018-09-06T11:34:57.825Z,12.77
2018-09-06T11:37:24.724Z,11.60
2018-09-06T11:39:51.674Z,12.23
2018-09-06T11:42:18.573Z,10.53
2018-09-06T11:44:45.476Z,10.60
2018-09-06T11:47:12.417Z,12.60
2018-09-06T11:49:39.329Z,11.90
2018-09-06T11:52:06.772Z,12.27
2018-09-06T11:54:33.681Z,14.07
2018-09-06T11:57:00.586Z,11.30
2018-09-06T11:59:27.513Z,13.30
2018-09-06T12:01:54.415Z,10.30
2018-09-06T12:04:21.366Z,14.70
2018-09-06T12:06:48.283Z,12.37
2018-09-06T12:09:15.204Z,11.40
2018-09-06T12:11:42.093Z,13.03
2018-09-06T12:14:09.011Z,12.20
2018-09-06T12:16:35.925Z,12.87
2018-09-06T12:19:02.852Z,11.63
2018-09-06T12:21:29.769Z,13.53
2018-09-06T12:23:56.767Z,12.60
2018-09-06T12:26:23.754Z,12.73
2018-09-06T12:28:50.674Z,12.23
2018-09-06T12:31:17.599Z,11.60
2018-09-06T12:33:44.536Z,11.70
2018-09-06T12:36:11.484Z,11.07
2018-09-06T12:38:38.475Z,10.43
2018-09-06T12:41:05.389Z,11.20
2018-09-06T12:43:32.329Z,14.17
2018-09-06T12:45:59.260Z,11.47
2018-09-06T12:48:26.161Z,11.13
2018-09-06T12:50:53.099Z,12.07
2018-09-06T12:53:20.028Z,10.07
2018-09-06T12:55:47.004Z,11.07
2018-09-06T12:58:14.057Z,11.47
2018-09-06T13:00:40.996Z,9.70
2018-09-06T13:03:07.889Z,15.53
2018-09-06T13:05:34.796Z,10.17
2018-09-06T13:08:01.799Z,9.70
2018-09-06T13:10:28.653Z,10.10
2018-09-06T13:12:55.540Z,12.90
2018-09-06T13:15:22.456Z,9.73
2018-09-06T13:17:49.354Z,11.67
2018-09-06T13:20:16.244Z,8.30
2018-09-06T13:22:43.153Z,13.90
2018-09-06T13:27:43.711Z,9.57
2018-09-06T13:30:10.637Z,9.53
2018-09-06T13:32:37.535Z,9.43
2018-09-06T13:35:04.433Z,9.67
2018-09-06T13:37:31.345Z,9.60
2018-09-06T13:39:58.240Z,9.57
2018-09-06T13:42:25.139Z,10.40
2018-09-06T13:44:52.055Z,11.27
2018-09-06T13:47:18.968Z,9.67
2018-09-06T13:49:45.868Z,9.20
2018-09-06T13:52:12.832Z,10.87
2018-09-06T13:54:39.672Z,9.40
2018-09-06T13:57:06.613Z,9.23
2018-09-06T13:59:33.528Z,11.23
2018-09-06T14:02:00.501Z,8.67
2018-09-06T14:04:27.474Z,9.07
2018-09-06T14:06:54.357Z,9.67
2018-09-06T14:09:21.256Z,8.47
2018-09-06T14:11:48.229Z,9.50
2018-09-06T14:14:15.130Z,10.77
2018-09-06T14:16:42.094Z,8.53
2018-09-06T14:19:08.960Z,13.17
2018-09-06T14:21:35.874Z,7.80
2018-09-06T14:24:02.919Z,8.40
2018-09-06T14:26:29.813Z,8.03
2018-09-06T14:28:57.070Z,13.83
2018-09-06T14:31:23.989Z,9.43
2018-09-06T14:33:50.985Z,8.17
2018-09-06T14:36:17.905Z,7.60
2018-09-06T14:38:44.846Z,7.70
2018-09-06T14:41:11.737Z,7.13
2018-09-06T14:43:38.652Z,7.63
2018-09-06T14:46:05.567Z,7.90
2018-09-06T14:48:32.463Z,8.47
2018-09-06T14:50:59.497Z,9.20
2018-09-06T14:53:26.389Z,8.33
2018-09-06T14:55:53.295Z,9.40
2018-09-06T14:58:20.215Z,8.57
2018-09-06T15:00:47.129Z,8.13
2018-09-06T15:03:14.017Z,7.67
2018-09-06T15:05:40.906Z,7.13
2018-09-06T15:08:07.880Z,8.03
2018-09-06T15:10:34.724Z,8.00
2018-09-06T15:13:01.631Z,7.67
2018-09-06T15:15:28.528Z,7.37
2018-09-06T15:17:55.432Z,6.73
2018-09-06T15:20:22.341Z,6.60
2018-09-06T15:22:49.285Z,7.77
2018-09-06T15:25:16.183Z,7.40
2018-09-06T15:27:43.137Z,6.57
2018-09-06T15:30:10.022Z,7.63
2018-09-06T15:32:36.913Z,6.90
2018-09-06T15:35:03.848Z,9.63
2018-09-06T15:37:30.744Z,7.40
2018-09-06T15:39:57.640Z,7.50
2018-09-06T15:42:24.546Z,8.07
2018-09-06T15:44:51.464Z,10.47
2018-09-06T15:47:18.353Z,9.70
2018-09-06T15:49:45.296Z,7.40
2018-09-06T15:52:12.165Z,6.93
2018-09-06T15:54:39.070Z,6.77
2018-09-06T15:57:05.978Z,7.73
2018-09-06T15:59:32.865Z,6.17
2018-09-06T16:01:59.773Z,8.63
2018-09-06T16:04:26.656Z,6.93
2018-09-06T16:06:53.563Z,7.47
2018-09-06T16:09:20.456Z,7.87
2018-09-06T16:11:47.377Z,7.63
2018-09-06T16:14:14.273Z,8.70
2018-09-06T16:16:41.169Z,6.93
2018-09-06T16:19:08.240Z,8.83
2018-09-06T16:21:35.133Z,7.90
2018-09-06T16:24:02.072Z,7.17
2018-09-06T16:26:28.956Z,7.67
2018-09-06T16:28:55.864Z,7.33
2018-09-06T16:31:22.771Z,6.53
2018-09-06T16:33:49.690Z,7.33
2018-09-06T16:36:16.593Z,7.33
2018-09-06T16:38:43.477Z,7.80
2018-09-06T16:41:10.388Z,7.67
2018-09-06T16:43:37.289Z,7.40
2018-09-06T16:46:04.193Z,9.07
2018-09-06T16:48:31.092Z,7.27
2018-09-06T16:50:57.976Z,7.10
2018-09-06T16:53:24.876Z,9.17
2018-09-06T16:55:51.768Z,7.30
2018-09-06T16:58:18.664Z,7.33
2018-09-06T17:00:45.637Z,7.07
2018-09-06T17:03:12.484Z,8.50
2018-09-06T17:05:39.361Z,7.53
2018-09-06T17:08:06.286Z,7.83
2018-09-06T17:10:33.185Z,8.47
2018-09-06T17:13:00.121Z,10.10
2018-09-06T17:15:27.033Z,9.13
2018-09-06T17:17:53.925Z,8.30
2018-09-06T17:20:20.847Z,7.90
2018-09-06T17:22:47.760Z,9.47
2018-09-06T17:25:14.657Z,9.60
2018-09-06T17:27:41.572Z,8.03
2018-09-06T17:30:09.261Z,7.87
2018-09-06T17:32:36.201Z,8.20
2018-09-06T17:35:03.185Z,10.03
2018-09-06T17:37:30.089Z,8.70
2018-09-06T17:39:57.035Z,11.40
2018-09-06T17:42:23.974Z,9.50
2018-09-06T17:44:50.890Z,9.57
2018-09-06T17:47:17.810Z,8.67
2018-09-06T17:49:44.700Z,9.57
2018-09-06T17:52:11.858Z,8.43
2018-09-06T17:54:38.744Z,9.03
2018-09-06T17:57:05.687Z,7.70
2018-09-06T17:59:32.588Z,7.97
2018-09-06T18:01:59.509Z,7.97
2018-09-06T18:04:26.405Z,9.10
2018-09-06T18:06:53.308Z,8.07
2018-09-06T18:09:20.273Z,9.23
2018-09-06T18:11:47.227Z,9.80
2018-09-06T18:14:14.152Z,9.17
2018-09-06T18:16:41.056Z,9.70
2018-09-06T18:19:07.972Z,8.43
2018-09-06T18:21:34.888Z,8.30
2018-09-06T18:24:01.815Z,8.50
2018-09-06T18:26:28.748Z,9.13
2018-09-06T18:28:55.711Z,8.67
2018-09-06T18:31:22.680Z,9.10
2018-09-06T18:33:49.604Z,9.07
2018-09-06T18:36:16.528Z,8.63
2018-09-06T18:38:44.143Z,8.13
2018-09-06T18:41:11.056Z,9.87
2018-09-06T18:43:37.975Z,9.43
2018-09-06T18:46:04.865Z,8.60
2018-09-06T18:48:31.767Z,11.47
2018-09-06T18:50:58.661Z,8.97
2018-09-06T18:53:25.565Z,8.27
2018-09-06T18:55:52.480Z,8.37
2018-09-06T18:58:19.377Z,8.63
2018-09-06T19:00:46.277Z,10.03
2018-09-06T19:03:13.217Z,8.87
2018-09-06T19:05:40.225Z,8.60
2018-09-06T19:08:07.136Z,8.90
2018-09-06T19:10:34.028Z,8.60
2018-09-06T19:13:00.908Z,8.83
2018-09-06T19:15:27.804Z,10.13
2018-09-06T19:17:54.743Z,9.00
2018-09-06T19:20:21.741Z,10.70
2018-09-06T19:22:48.651Z,10.20
2018-09-06T19:25:15.563Z,8.80
2018-09-06T19:27:42.472Z,8.83
2018-09-06T19:30:09.432Z,8.67
2018-09-06T19:32:36.334Z,9.50
2018-09-06T19:35:03.268Z,8.40
2018-09-06T19:37:30.152Z,8.87
2018-09-06T19:39:57.116Z,7.97
2018-09-06T19:42:23.991Z,8.70
2018-09-06T19:44:50.885Z,8.00
2018-09-06T19:47:17.784Z,10.37
2018-09-06T19:49:44.688Z,10.50
2018-09-06T19:52:11.585Z,8.40
2018-09-06T19:54:38.483Z,8.43
2018-09-06T19:57:05.473Z,8.23
2018-09-06T19:59:32.375Z,8.90
2018-09-06T20:01:59.308Z,9.37
2018-09-06T20:04:26.245Z,8.67
2018-09-06T20:06:53.264Z,9.67
2018-09-06T20:09:20.248Z,9.13
2018-09-06T20:11:47.322Z,10.20
2018-09-06T20:14:14.222Z,9.90
2018-09-06T20:16:41.254Z,10.70
2018-09-06T20:19:08.107Z,9.93
2018-09-06T20:21:35.000Z,9.60
2018-09-06T20:24:01.930Z,9.33
2018-09-06T20:26:28.838Z,10.40
2018-09-06T20:28:55.942Z,10.27
2018-09-06T20:31:22.825Z,14.27
2018-09-06T20:33:49.763Z,10.70
2018-09-06T20:36:16.608Z,9.70
2018-09-06T20:38:43.516Z,11.13
2018-09-06T20:41:10.432Z,14.00
2018-09-06T20:43:37.377Z,10.67
2018-09-06T20:46:04.268Z,10.57
2018-09-06T20:48:31.160Z,10.47
2018-09-06T20:50:58.104Z,10.97
2018-09-06T20:53:25.046Z,11.03
2018-09-06T20:55:52.357Z,10.13
2018-09-06T20:58:19.537Z,12.20
2018-09-06T21:00:46.449Z,11.00
2018-09-06T21:03:13.501Z,10.10
2018-09-06T21:05:41.396Z,10.60
2018-09-06T21:08:08.887Z,10.40
2018-09-06T21:10:35.847Z,12.90
2018-09-06T21:13:02.709Z,11.13
2018-09-06T21:15:29.714Z,11.47
2018-09-06T21:17:56.596Z,13.40
2018-09-06T21:20:24.300Z,14.20
2018-09-06T21:22:51.216Z,11.93
2018-09-06T21:25:18.113Z,10.73
2018-09-06T21:27:45.025Z,15.77
2018-09-06T21:30:11.955Z,13.50
2018-09-06T21:32:38.873Z,11.23
2018-09-06T21:35:05.786Z,12.40
2018-09-06T21:37:33.513Z,10.87
2018-09-06T21:40:00.480Z,11.27
2018-09-06T21:42:27.329Z,17.93
2018-09-06T21:44:54.222Z,12.43
2018-09-06T21:47:21.116Z,11.73
2018-09-06T21:49:48.005Z,11.77
2018-09-06T21:52:14.900Z,11.80
2018-09-06T21:54:41.789Z,12.30
2018-09-06T21:57:08.681Z,13.03
2018-09-06T21:59:35.577Z,13.33
2018-09-06T22:02:02.496Z,14.17
2018-09-06T22:04:29.388Z,14.57
2018-09-06T22:06:56.339Z,12.97
2018-09-06T22:09:23.248Z,14.27
2018-09-06T22:11:50.180Z,14.07
2018-09-06T22:14:17.108Z,15.10
2018-09-06T22:16:44.051Z,14.70
2018-09-06T22:19:10.963Z,15.23
2018-09-06T22:21:37.972Z,14.67
2018-09-06T22:24:04.914Z,14.70
2018-09-06T22:26:31.849Z,14.33
2018-09-06T22:28:58.800Z,15.17
2018-09-06T22:31:25.760Z,15.60
2018-09-06T22:33:52.681Z,16.83
2018-09-06T22:36:19.600Z,16.93
2018-09-06T22:38:46.536Z,16.63
2018-09-06T22:41:13.440Z,18.47
2018-09-06T22:43:40.374Z,17.63
2018-09-06T22:46:07.316Z,18.90
2018-09-06T22:48:34.266Z,22.50
2018-09-06T22:51:01.879Z,19.20
2018-09-06T22:53:28.916Z,21.83
2018-09-06T22:55:55.859Z,19.13
2018-09-06T22:58:22.781Z,23.27
2018-09-06T23:00:49.696Z,23.00
2018-09-06T23:03:22.389Z,20.07
2018-09-06T23:05:49.296Z,20.77
2018-09-06T23:08:16.225Z,23.27
2018-09-06T23:10:43.119Z,23.33
2018-09-06T23:13:10.045Z,23.20
2018-09-06T23:15:36.966Z,22.73
2018-09-06T23:18:03.913Z,22.80
2018-09-06T23:20:30.809Z,24.33
2018-09-06T23:22:57.726Z,23.53
2018-09-06T23:25:24.624Z,22.73
2018-09-06T23:27:51.547Z,24.67
2018-09-06T23:30:18.444Z,23.20
2018-09-06T23:32:45.341Z,24.00
2018-09-06T23:35:12.215Z,25.57
2018-09-06T23:37:39.105Z,25.53
2018-09-06T23:40:06.011Z,31.77
2018-09-06T23:42:32.897Z,22.33
2018-09-06T23:44:59.814Z,23.47
2018-09-06T23:47:26.725Z,23.17
2018-09-06T23:49:53.613Z,23.10
2018-09-06T23:52:20.972Z,22.60
2018-09-06T23:54:48.244Z,22.03
2018-09-06T23:57:15.120Z,22.37
2018-09-06T23:59:42.029Z,26.20
